sensor_id;sensor_type;location;lat;lon;timestamp;P1;durP1;ratioP1;P2;durP2;ratioP2
37971;SDS011;23794;48.234;8.344;2023-03-03T00:01:44;50.60;;;25.80;;
37971;SDS011;23794;48.234;8.344;2023-03-03T00:04:11;49.50;;;24.73;;
37971;SDS011;23794;48.234;8.344;2023-03-03T00:06:37;49.65;;;24.85;;
37971;SDS011;23794;48.234;8.344;2023-03-03T00:09:04;41.95;;;23.27;;
37971;SDS011;23794;48.234;8.344;2023-03-03T00:11:31;49.40;;;26.23;;
37971;SDS011;23794;48.234;8.344;2023-03-03T00:13:57;46.38;;;24.83;;
37971;SDS011;23794;48.234;8.344;2023-03-03T00:16:26;51.05;;;26.08;;
37971;SDS011;23794;48.234;8.344;2023-03-03T00:19:13;49.10;;;23.02;;
37971;SDS011;23794;48.234;8.344;2023-03-03T00:21:44;46.28;;;24.25;;
37971;SDS011;23794;48.234;8.344;2023-03-03T00:26:39;47.35;;;23.58;;
37971;SDS011;23794;48.234;8.344;2023-03-03T00:32:18;53.97;;;26.15;;
37971;SDS011;23794;48.234;8.344;2023-03-03T00:34:49;41.42;;;22.05;;
37971;SDS011;23794;48.234;8.344;2023-03-03T00:37:27;47.72;;;23.02;;
37971;SDS011;23794;48.234;8.344;2023-03-03T00:39:58;50.55;;;26.48;;
37971;SDS011;23794;48.234;8.344;2023-03-03T00:42:27;50.17;;;24.33;;
37971;SDS011;23794;48.234;8.344;2023-03-03T00:44:57;46.17;;;25.00;;
37971;SDS011;23794;48.234;8.344;2023-03-03T00:50:15;58.50;;;26.92;;
37971;SDS011;23794;48.234;8.344;2023-03-03T00:53:00;43.88;;;23.17;;
37971;SDS011;23794;48.234;8.344;2023-03-03T00:55:32;60.60;;;28.58;;
37971;SDS011;23794;48.234;8.344;2023-03-03T00:58:00;44.97;;;24.60;;
37971;SDS011;23794;48.234;8.344;2023-03-03T01:00:32;46.30;;;24.63;;
37971;SDS011;23794;48.234;8.344;2023-03-03T01:03:03;52.90;;;29.33;;
37971;SDS011;23794;48.234;8.344;2023-03-03T01:05:33;49.67;;;24.45;;
37971;SDS011;23794;48.234;8.344;2023-03-03T01:08:00;47.47;;;24.20;;
37971;SDS011;23794;48.234;8.344;2023-03-03T01:10:27;54.25;;;25.48;;
37971;SDS011;23794;48.234;8.344;2023-03-03T01:12:58;51.88;;;28.02;;
37971;SDS011;23794;48.234;8.344;2023-03-03T01:15:25;57.72;;;26.58;;
37971;SDS011;23794;48.234;8.344;2023-03-03T01:17:51;53.15;;;25.00;;
37971;SDS011;23794;48.234;8.344;2023-03-03T01:20:18;53.17;;;25.50;;
37971;SDS011;23794;48.234;8.344;2023-03-03T01:22:44;51.38;;;25.73;;
37971;SDS011;23794;48.234;8.344;2023-03-03T01:25:11;47.90;;;25.05;;
37971;SDS011;23794;48.234;8.344;2023-03-03T01:27:38;49.60;;;25.70;;
37971;SDS011;23794;48.234;8.344;2023-03-03T01:30:06;48.67;;;26.60;;
37971;SDS011;23794;48.234;8.344;2023-03-03T01:32:33;50.03;;;25.10;;
37971;SDS011;23794;48.234;8.344;2023-03-03T01:35:00;46.53;;;25.40;;
37971;SDS011;23794;48.234;8.344;2023-03-03T01:37:27;51.40;;;25.83;;
37971;SDS011;23794;48.234;8.344;2023-03-03T01:39:54;44.28;;;23.58;;
37971;SDS011;23794;48.234;8.344;2023-03-03T01:42:21;53.53;;;27.35;;
37971;SDS011;23794;48.234;8.344;2023-03-03T01:44:48;49.40;;;24.95;;
37971;SDS011;23794;48.234;8.344;2023-03-03T01:47:16;46.55;;;23.70;;
37971;SDS011;23794;48.234;8.344;2023-03-03T01:50:02;57.25;;;27.00;;
37971;SDS011;23794;48.234;8.344;2023-03-03T01:52:35;48.65;;;23.27;;
37971;SDS011;23794;48.234;8.344;2023-03-03T01:55:11;51.58;;;26.02;;
37971;SDS011;23794;48.234;8.344;2023-03-03T01:57:43;42.72;;;22.77;;
37971;SDS011;23794;48.234;8.344;2023-03-03T02:00:13;55.92;;;26.35;;
37971;SDS011;23794;48.234;8.344;2023-03-03T02:02:42;52.80;;;26.23;;
37971;SDS011;23794;48.234;8.344;2023-03-03T02:05:09;55.50;;;25.17;;
37971;SDS011;23794;48.234;8.344;2023-03-03T02:07:36;51.40;;;25.27;;
37971;SDS011;23794;48.234;8.344;2023-03-03T02:10:05;50.80;;;26.23;;
37971;SDS011;23794;48.234;8.344;2023-03-03T02:12:43;50.60;;;25.55;;
37971;SDS011;23794;48.234;8.344;2023-03-03T02:15:17;54.08;;;25.90;;
37971;SDS011;23794;48.234;8.344;2023-03-03T02:17:55;51.63;;;26.60;;
37971;SDS011;23794;48.234;8.344;2023-03-03T02:23:27;50.75;;;25.88;;
37971;SDS011;23794;48.234;8.344;2023-03-03T02:28:41;60.88;;;30.00;;
37971;SDS011;23794;48.234;8.344;2023-03-03T02:31:12;56.78;;;26.48;;
37971;SDS011;23794;48.234;8.344;2023-03-03T02:33:43;50.83;;;25.45;;
37971;SDS011;23794;48.234;8.344;2023-03-03T02:36:13;53.15;;;27.25;;
37971;SDS011;23794;48.234;8.344;2023-03-03T02:38:58;47.58;;;22.80;;
37971;SDS011;23794;48.234;8.344;2023-03-03T02:41:49;50.97;;;26.50;;
37971;SDS011;23794;48.234;8.344;2023-03-03T02:44:30;57.72;;;27.88;;
37971;SDS011;23794;48.234;8.344;2023-03-03T02:46:57;63.00;;;28.63;;
37971;SDS011;23794;48.234;8.344;2023-03-03T02:49:27;52.38;;;25.02;;
37971;SDS011;23794;48.234;8.344;2023-03-03T02:51:58;51.33;;;25.63;;
37971;SDS011;23794;48.234;8.344;2023-03-03T02:54:27;53.28;;;25.33;;
37971;SDS011;23794;48.234;8.344;2023-03-03T02:56:57;58.08;;;28.05;;
37971;SDS011;23794;48.234;8.344;2023-03-03T02:59:25;62.08;;;28.00;;
37971;SDS011;23794;48.234;8.344;2023-03-03T03:01:53;50.25;;;25.20;;
37971;SDS011;23794;48.234;8.344;2023-03-03T03:04:21;52.83;;;25.15;;
37971;SDS011;23794;48.234;8.344;2023-03-03T03:06:51;56.10;;;26.98;;
37971;SDS011;23794;48.234;8.344;2023-03-03T03:09:20;53.03;;;26.25;;
37971;SDS011;23794;48.234;8.344;2023-03-03T03:11:50;47.50;;;24.80;;
37971;SDS011;23794;48.234;8.344;2023-03-03T03:14:20;58.63;;;26.25;;
37971;SDS011;23794;48.234;8.344;2023-03-03T03:16:46;53.20;;;26.27;;
37971;SDS011;23794;48.234;8.344;2023-03-03T03:19:13;51.60;;;24.95;;
37971;SDS011;23794;48.234;8.344;2023-03-03T03:21:40;59.83;;;26.15;;
37971;SDS011;23794;48.234;8.344;2023-03-03T03:24:08;55.75;;;26.30;;
37971;SDS011;23794;48.234;8.344;2023-03-03T03:26:38;54.33;;;26.20;;
37971;SDS011;23794;48.234;8.344;2023-03-03T03:29:04;53.00;;;26.13;;
37971;SDS011;23794;48.234;8.344;2023-03-03T03:31:32;52.63;;;25.88;;
37971;SDS011;23794;48.234;8.344;2023-03-03T03:34:01;53.13;;;26.48;;
37971;SDS011;23794;48.234;8.344;2023-03-03T03:36:28;52.90;;;25.83;;
37971;SDS011;23794;48.234;8.344;2023-03-03T03:38:55;64.35;;;27.83;;
37971;SDS011;23794;48.234;8.344;2023-03-03T03:41:21;55.88;;;29.27;;
37971;SDS011;23794;48.234;8.344;2023-03-03T03:43:48;49.75;;;24.52;;
37971;SDS011;23794;48.234;8.344;2023-03-03T03:46:15;52.35;;;28.88;;
37971;SDS011;23794;48.234;8.344;2023-03-03T03:48:42;55.45;;;26.80;;
37971;SDS011;23794;48.234;8.344;2023-03-03T03:51:11;52.40;;;25.55;;
37971;SDS011;23794;48.234;8.344;2023-03-03T03:53:38;53.00;;;26.90;;
37971;SDS011;23794;48.234;8.344;2023-03-03T03:56:05;59.33;;;28.20;;
37971;SDS011;23794;48.234;8.344;2023-03-03T03:58:32;47.58;;;25.13;;
37971;SDS011;23794;48.234;8.344;2023-03-03T04:01:06;49.92;;;24.45;;
37971;SDS011;23794;48.234;8.344;2023-03-03T04:03:38;51.00;;;25.13;;
37971;SDS011;23794;48.234;8.344;2023-03-03T04:06:09;44.35;;;24.27;;
37971;SDS011;23794;48.234;8.344;2023-03-03T04:08:36;56.47;;;26.45;;
37971;SDS011;23794;48.234;8.344;2023-03-03T04:11:03;63.38;;;29.02;;
37971;SDS011;23794;48.234;8.344;2023-03-03T04:13:30;61.80;;;28.85;;
37971;SDS011;23794;48.234;8.344;2023-03-03T04:16:01;54.45;;;27.23;;
37971;SDS011;23794;48.234;8.344;2023-03-03T04:18:28;61.35;;;28.33;;
37971;SDS011;23794;48.234;8.344;2023-03-03T04:20:56;53.47;;;26.10;;
37971;SDS011;23794;48.234;8.344;2023-03-03T04:23:24;58.47;;;27.30;;
37971;SDS011;23794;48.234;8.344;2023-03-03T04:25:51;61.08;;;28.17;;
37971;SDS011;23794;48.234;8.344;2023-03-03T04:28:18;64.43;;;29.17;;
37971;SDS011;23794;48.234;8.344;2023-03-03T04:30:45;50.70;;;25.77;;
37971;SDS011;23794;48.234;8.344;2023-03-03T04:33:16;51.55;;;26.20;;
37971;SDS011;23794;48.234;8.344;2023-03-03T04:35:44;57.40;;;27.50;;
37971;SDS011;23794;48.234;8.344;2023-03-03T04:38:11;52.53;;;24.35;;
37971;SDS011;23794;48.234;8.344;2023-03-03T04:40:39;56.83;;;26.08;;
37971;SDS011;23794;48.234;8.344;2023-03-03T04:43:07;56.20;;;26.80;;
37971;SDS011;23794;48.234;8.344;2023-03-03T04:45:35;50.75;;;25.70;;
37971;SDS011;23794;48.234;8.344;2023-03-03T04:48:02;53.05;;;26.38;;
37971;SDS011;23794;48.234;8.344;2023-03-03T04:50:29;57.67;;;28.80;;
37971;SDS011;23794;48.234;8.344;2023-03-03T04:52:56;52.03;;;26.63;;
37971;SDS011;23794;48.234;8.344;2023-03-03T04:55:23;62.50;;;28.90;;
37971;SDS011;23794;48.234;8.344;2023-03-03T04:57:50;58.53;;;29.73;;
37971;SDS011;23794;48.234;8.344;2023-03-03T05:00:17;63.65;;;28.52;;
37971;SDS011;23794;48.234;8.344;2023-03-03T05:02:44;57.47;;;28.08;;
37971;SDS011;23794;48.234;8.344;2023-03-03T05:05:13;53.42;;;27.40;;
37971;SDS011;23794;48.234;8.344;2023-03-03T05:07:40;48.60;;;25.58;;
37971;SDS011;23794;48.234;8.344;2023-03-03T05:10:07;53.03;;;27.83;;
37971;SDS011;23794;48.234;8.344;2023-03-03T05:12:33;51.22;;;27.23;;
37971;SDS011;23794;48.234;8.344;2023-03-03T05:15:00;60.45;;;28.70;;
37971;SDS011;23794;48.234;8.344;2023-03-03T05:17:27;53.75;;;28.92;;
37971;SDS011;23794;48.234;8.344;2023-03-03T05:19:53;52.53;;;27.08;;
37971;SDS011;23794;48.234;8.344;2023-03-03T05:22:22;51.10;;;27.85;;
37971;SDS011;23794;48.234;8.344;2023-03-03T05:24:49;54.17;;;27.83;;
37971;SDS011;23794;48.234;8.344;2023-03-03T05:27:16;54.85;;;28.13;;
37971;SDS011;23794;48.234;8.344;2023-03-03T05:29:43;48.17;;;25.40;;
37971;SDS011;23794;48.234;8.344;2023-03-03T05:32:10;49.70;;;26.63;;
37971;SDS011;23794;48.234;8.344;2023-03-03T05:34:36;51.17;;;27.42;;
37971;SDS011;23794;48.234;8.344;2023-03-03T05:37:03;52.28;;;26.80;;
37971;SDS011;23794;48.234;8.344;2023-03-03T05:39:32;50.08;;;24.77;;
37971;SDS011;23794;48.234;8.344;2023-03-03T05:42:00;49.67;;;26.73;;
37971;SDS011;23794;48.234;8.344;2023-03-03T05:44:27;55.55;;;27.23;;
37971;SDS011;23794;48.234;8.344;2023-03-03T05:46:54;55.47;;;28.05;;
37971;SDS011;23794;48.234;8.344;2023-03-03T05:49:21;46.25;;;24.45;;
37971;SDS011;23794;48.234;8.344;2023-03-03T05:51:48;50.90;;;26.85;;
37971;SDS011;23794;48.234;8.344;2023-03-03T05:54:15;70.43;;;37.72;;
37971;SDS011;23794;48.234;8.344;2023-03-03T05:56:44;58.53;;;29.35;;
37971;SDS011;23794;48.234;8.344;2023-03-03T05:59:10;56.35;;;28.65;;
37971;SDS011;23794;48.234;8.344;2023-03-03T06:01:37;53.78;;;29.08;;
37971;SDS011;23794;48.234;8.344;2023-03-03T06:04:03;60.30;;;29.23;;
37971;SDS011;23794;48.234;8.344;2023-03-03T06:06:30;56.60;;;29.05;;
37971;SDS011;23794;48.234;8.344;2023-03-03T06:08:57;58.25;;;28.77;;
37971;SDS011;23794;48.234;8.344;2023-03-03T06:11:23;47.70;;;25.77;;
37971;SDS011;23794;48.234;8.344;2023-03-03T06:13:50;49.88;;;26.55;;
37971;SDS011;23794;48.234;8.344;2023-03-03T06:16:17;52.55;;;27.95;;
37971;SDS011;23794;48.234;8.344;2023-03-03T06:18:43;49.42;;;26.08;;
37971;SDS011;23794;48.234;8.344;2023-03-03T06:21:10;51.15;;;27.17;;
37971;SDS011;23794;48.234;8.344;2023-03-03T06:23:36;46.90;;;25.15;;
37971;SDS011;23794;48.234;8.344;2023-03-03T06:26:04;44.22;;;25.15;;
37971;SDS011;23794;48.234;8.344;2023-03-03T06:28:30;53.15;;;28.45;;
37971;SDS011;23794;48.234;8.344;2023-03-03T06:30:57;51.72;;;26.75;;
37971;SDS011;23794;48.234;8.344;2023-03-03T06:33:24;53.78;;;29.33;;
37971;SDS011;23794;48.234;8.344;2023-03-03T06:35:51;66.03;;;34.80;;
37971;SDS011;23794;48.234;8.344;2023-03-03T06:38:18;75.55;;;43.90;;
37971;SDS011;23794;48.234;8.344;2023-03-03T06:40:45;59.35;;;37.25;;
37971;SDS011;23794;48.234;8.344;2023-03-03T06:43:13;76.80;;;41.50;;
37971;SDS011;23794;48.234;8.344;2023-03-03T06:45:39;68.88;;;44.20;;
37971;SDS011;23794;48.234;8.344;2023-03-03T06:48:06;68.75;;;39.42;;
37971;SDS011;23794;48.234;8.344;2023-03-03T06:50:33;71.18;;;40.35;;
37971;SDS011;23794;48.234;8.344;2023-03-03T06:53:10;66.47;;;36.17;;
37971;SDS011;23794;48.234;8.344;2023-03-03T06:55:38;63.58;;;35.95;;
37971;SDS011;23794;48.234;8.344;2023-03-03T06:58:13;61.25;;;35.58;;
37971;SDS011;23794;48.234;8.344;2023-03-03T07:00:42;64.78;;;35.28;;
37971;SDS011;23794;48.234;8.344;2023-03-03T07:03:17;61.28;;;33.85;;
37971;SDS011;23794;48.234;8.344;2023-03-03T07:05:48;57.30;;;31.50;;
37971;SDS011;23794;48.234;8.344;2023-03-03T07:08:15;52.30;;;30.65;;
37971;SDS011;23794;48.234;8.344;2023-03-03T07:10:46;85.53;;;47.80;;
37971;SDS011;23794;48.234;8.344;2023-03-03T07:13:19;86.70;;;49.15;;
37971;SDS011;23794;48.234;8.344;2023-03-03T07:15:51;75.60;;;43.05;;
37971;SDS011;23794;48.234;8.344;2023-03-03T07:18:24;60.55;;;34.70;;
37971;SDS011;23794;48.234;8.344;2023-03-03T07:21:20;66.78;;;34.72;;
37971;SDS011;23794;48.234;8.344;2023-03-03T07:23:48;57.00;;;31.33;;
37971;SDS011;23794;48.234;8.344;2023-03-03T07:26:17;72.32;;;38.95;;
37971;SDS011;23794;48.234;8.344;2023-03-03T07:31:25;73.20;;;41.20;;
37971;SDS011;23794;48.234;8.344;2023-03-03T07:33:56;134.13;;;69.50;;
37971;SDS011;23794;48.234;8.344;2023-03-03T07:36:25;86.10;;;48.63;;
37971;SDS011;23794;48.234;8.344;2023-03-03T07:45:20;89.75;;;50.65;;
37971;SDS011;23794;48.234;8.344;2023-03-03T07:50:44;87.80;;;45.28;;
37971;SDS011;23794;48.234;8.344;2023-03-03T07:53:14;88.28;;;45.10;;
37971;SDS011;23794;48.234;8.344;2023-03-03T07:55:50;93.85;;;49.65;;
37971;SDS011;23794;48.234;8.344;2023-03-03T07:58:21;85.38;;;45.40;;
37971;SDS011;23794;48.234;8.344;2023-03-03T08:03:54;80.50;;;45.47;;
37971;SDS011;23794;48.234;8.344;2023-03-03T08:09:01;82.35;;;44.53;;
37971;SDS011;23794;48.234;8.344;2023-03-03T08:14:35;80.30;;;45.95;;
37971;SDS011;23794;48.234;8.344;2023-03-03T08:17:10;70.55;;;41.40;;
37971;SDS011;23794;48.234;8.344;2023-03-03T08:19:42;80.68;;;42.35;;
37971;SDS011;23794;48.234;8.344;2023-03-03T08:24:55;70.75;;;39.55;;
37971;SDS011;23794;48.234;8.344;2023-03-03T08:27:22;65.65;;;34.40;;
37971;SDS011;23794;48.234;8.344;2023-03-03T08:29:48;64.43;;;35.90;;
37971;SDS011;23794;48.234;8.344;2023-03-03T08:32:15;70.90;;;34.40;;
37971;SDS011;23794;48.234;8.344;2023-03-03T08:34:42;68.95;;;40.63;;
37971;SDS011;23794;48.234;8.344;2023-03-03T08:37:08;65.20;;;38.00;;
37971;SDS011;23794;48.234;8.344;2023-03-03T08:39:35;61.28;;;34.50;;
37971;SDS011;23794;48.234;8.344;2023-03-03T08:42:02;62.92;;;33.55;;
37971;SDS011;23794;48.234;8.344;2023-03-03T08:44:28;65.50;;;33.25;;
37971;SDS011;23794;48.234;8.344;2023-03-03T08:46:55;66.25;;;32.28;;
37971;SDS011;23794;48.234;8.344;2023-03-03T08:49:21;57.70;;;30.33;;
37971;SDS011;23794;48.234;8.344;2023-03-03T08:51:48;55.95;;;30.40;;
37971;SDS011;23794;48.234;8.344;2023-03-03T08:54:14;66.57;;;33.20;;
37971;SDS011;23794;48.234;8.344;2023-03-03T08:56:41;66.03;;;34.90;;
37971;SDS011;23794;48.234;8.344;2023-03-03T08:59:07;67.20;;;31.35;;
37971;SDS011;23794;48.234;8.344;2023-03-03T09:01:34;59.00;;;31.75;;
37971;SDS011;23794;48.234;8.344;2023-03-03T09:04:01;64.20;;;32.10;;
37971;SDS011;23794;48.234;8.344;2023-03-03T09:06:27;54.33;;;29.83;;
37971;SDS011;23794;48.234;8.344;2023-03-03T09:08:54;49.22;;;29.73;;
37971;SDS011;23794;48.234;8.344;2023-03-03T09:11:23;56.90;;;32.15;;
37971;SDS011;23794;48.234;8.344;2023-03-03T09:13:58;58.63;;;33.92;;
37971;SDS011;23794;48.234;8.344;2023-03-03T09:16:34;58.97;;;32.80;;
37971;SDS011;23794;48.234;8.344;2023-03-03T09:19:15;56.60;;;32.95;;
37971;SDS011;23794;48.234;8.344;2023-03-03T09:21:54;55.47;;;31.67;;
37971;SDS011;23794;48.234;8.344;2023-03-03T09:24:26;45.40;;;27.55;;
37971;SDS011;23794;48.234;8.344;2023-03-03T09:29:24;52.20;;;31.77;;
37971;SDS011;23794;48.234;8.344;2023-03-03T09:31:55;47.22;;;29.20;;
37971;SDS011;23794;48.234;8.344;2023-03-03T09:34:37;46.67;;;28.50;;
37971;SDS011;23794;48.234;8.344;2023-03-03T09:37:14;47.78;;;30.80;;
37971;SDS011;23794;48.234;8.344;2023-03-03T09:39:42;47.72;;;29.83;;
37971;SDS011;23794;48.234;8.344;2023-03-03T09:48:26;43.80;;;26.45;;
37971;SDS011;23794;48.234;8.344;2023-03-03T09:51:46;45.13;;;29.10;;
37971;SDS011;23794;48.234;8.344;2023-03-03T09:56:48;47.42;;;27.80;;
37971;SDS011;23794;48.234;8.344;2023-03-03T10:28:26;39.53;;;24.45;;
37971;SDS011;23794;48.234;8.344;2023-03-03T10:34:01;42.55;;;25.60;;
37971;SDS011;23794;48.234;8.344;2023-03-03T10:42:23;40.30;;;26.20;;
37971;SDS011;23794;48.234;8.344;2023-03-03T10:48:01;42.03;;;25.13;;
37971;SDS011;23794;48.234;8.344;2023-03-03T10:53:26;42.40;;;26.27;;
37971;SDS011;23794;48.234;8.344;2023-03-03T11:01:24;39.60;;;24.58;;
37971;SDS011;23794;48.234;8.344;2023-03-03T11:07:11;41.45;;;24.55;;
37971;SDS011;23794;48.234;8.344;2023-03-03T11:10:03;41.67;;;23.98;;
37971;SDS011;23794;48.234;8.344;2023-03-03T11:15:29;37.78;;;24.35;;
37971;SDS011;23794;48.234;8.344;2023-03-03T11:21:15;44.63;;;23.95;;
37971;SDS011;23794;48.234;8.344;2023-03-03T11:24:03;42.13;;;26.02;;
37971;SDS011;23794;48.234;8.344;2023-03-03T11:26:51;35.40;;;21.98;;
37971;SDS011;23794;48.234;8.344;2023-03-03T11:35:18;37.15;;;22.70;;
37971;SDS011;23794;48.234;8.344;2023-03-03T11:46:13;43.35;;;24.15;;
37971;SDS011;23794;48.234;8.344;2023-03-03T11:51:33;37.72;;;23.55;;
37971;SDS011;23794;48.234;8.344;2023-03-03T11:54:19;42.33;;;23.45;;
37971;SDS011;23794;48.234;8.344;2023-03-03T11:56:50;41.47;;;24.65;;
37971;SDS011;23794;48.234;8.344;2023-03-03T12:10:41;41.70;;;25.13;;
37971;SDS011;23794;48.234;8.344;2023-03-03T12:16:14;37.05;;;24.77;;
37971;SDS011;23794;48.234;8.344;2023-03-03T12:25:32;40.17;;;25.20;;
37971;SDS011;23794;48.234;8.344;2023-03-03T12:27:47;40.72;;;24.83;;
37971;SDS011;23794;48.234;8.344;2023-03-03T12:30:48;37.53;;;22.75;;
37971;SDS011;23794;48.234;8.344;2023-03-03T12:36:11;44.60;;;24.55;;
37971;SDS011;23794;48.234;8.344;2023-03-03T12:39:00;37.28;;;23.77;;
37971;SDS011;23794;48.234;8.344;2023-03-03T12:41:38;36.72;;;23.48;;
37971;SDS011;23794;48.234;8.344;2023-03-03T12:47:09;54.80;;;39.40;;
37971;SDS011;23794;48.234;8.344;2023-03-03T12:55:23;37.70;;;25.77;;
37971;SDS011;23794;48.234;8.344;2023-03-03T13:00:54;54.40;;;39.20;;
37971;SDS011;23794;48.234;8.344;2023-03-03T13:03:56;38.10;;;24.58;;
37971;SDS011;23794;48.234;8.344;2023-03-03T13:18:18;36.53;;;24.65;;
37971;SDS011;23794;48.234;8.344;2023-03-03T13:24:01;39.08;;;24.95;;
37971;SDS011;23794;48.234;8.344;2023-03-03T13:26:50;34.00;;;23.38;;
37971;SDS011;23794;48.234;8.344;2023-03-03T13:29:39;34.38;;;22.85;;
37971;SDS011;23794;48.234;8.344;2023-03-03T13:32:13;40.08;;;23.05;;
37971;SDS011;23794;48.234;8.344;2023-03-03T13:34:52;39.80;;;24.73;;
37971;SDS011;23794;48.234;8.344;2023-03-03T13:42:46;35.85;;;23.38;;
37971;SDS011;23794;48.234;8.344;2023-03-03T13:45:26;36.47;;;23.13;;
37971;SDS011;23794;48.234;8.344;2023-03-03T13:48:25;33.10;;;21.77;;
37971;SDS011;23794;48.234;8.344;2023-03-03T14:05:13;41.65;;;24.30;;
37971;SDS011;23794;48.234;8.344;2023-03-03T14:10:25;37.63;;;23.83;;
37971;SDS011;23794;48.234;8.344;2023-03-03T14:13:10;37.90;;;23.73;;
37971;SDS011;23794;48.234;8.344;2023-03-03T14:18:32;34.90;;;23.17;;
37971;SDS011;23794;48.234;8.344;2023-03-03T14:21:06;39.17;;;24.00;;
37971;SDS011;23794;48.234;8.344;2023-03-03T14:24:22;34.28;;;23.13;;
37971;SDS011;23794;48.234;8.344;2023-03-03T14:26:48;38.97;;;24.30;;
37971;SDS011;23794;48.234;8.344;2023-03-03T14:31:56;35.55;;;23.30;;
37971;SDS011;23794;48.234;8.344;2023-03-03T14:34:35;43.38;;;25.15;;
37971;SDS011;23794;48.234;8.344;2023-03-03T14:37:17;42.13;;;24.25;;
37971;SDS011;23794;48.234;8.344;2023-03-03T14:39:49;37.92;;;23.83;;
37971;SDS011;23794;48.234;8.344;2023-03-03T14:44:59;35.15;;;23.95;;
37971;SDS011;23794;48.234;8.344;2023-03-03T14:47:29;37.20;;;23.47;;
37971;SDS011;23794;48.234;8.344;2023-03-03T14:49:56;38.40;;;23.73;;
37971;SDS011;23794;48.234;8.344;2023-03-03T14:52:26;35.85;;;22.73;;
37971;SDS011;23794;48.234;8.344;2023-03-03T14:55:00;39.85;;;24.63;;
37971;SDS011;23794;48.234;8.344;2023-03-03T15:05:55;38.60;;;25.15;;
37971;SDS011;23794;48.234;8.344;2023-03-03T15:08:33;36.75;;;22.95;;
37971;SDS011;23794;48.234;8.344;2023-03-03T15:14:09;39.53;;;25.00;;
37971;SDS011;23794;48.234;8.344;2023-03-03T15:16:40;41.10;;;25.63;;
37971;SDS011;23794;48.234;8.344;2023-03-03T15:25:08;35.53;;;23.65;;
37971;SDS011;23794;48.234;8.344;2023-03-03T15:27:38;33.53;;;20.90;;
37971;SDS011;23794;48.234;8.344;2023-03-03T15:35:46;34.47;;;23.13;;
37971;SDS011;23794;48.234;8.344;2023-03-03T15:38:21;37.60;;;22.85;;
37971;SDS011;23794;48.234;8.344;2023-03-03T15:41:00;33.33;;;21.88;;
37971;SDS011;23794;48.234;8.344;2023-03-03T15:44:31;40.05;;;22.88;;
37971;SDS011;23794;48.234;8.344;2023-03-03T15:46:58;34.15;;;22.25;;
37971;SDS011;23794;48.234;8.344;2023-03-03T15:49:43;33.13;;;21.08;;
37971;SDS011;23794;48.234;8.344;2023-03-03T15:58:44;37.05;;;22.20;;
37971;SDS011;23794;48.234;8.344;2023-03-03T16:01:33;32.97;;;21.77;;
37971;SDS011;23794;48.234;8.344;2023-03-03T16:04:11;37.67;;;23.05;;
37971;SDS011;23794;48.234;8.344;2023-03-03T16:07:25;33.53;;;21.77;;
37971;SDS011;23794;48.234;8.344;2023-03-03T16:09:47;34.25;;;21.63;;
37971;SDS011;23794;48.234;8.344;2023-03-03T16:20:55;34.95;;;22.48;;
37971;SDS011;23794;48.234;8.344;2023-03-03T16:23:45;31.50;;;21.88;;
37971;SDS011;23794;48.234;8.344;2023-03-03T16:27:11;39.63;;;21.73;;
37971;SDS011;23794;48.234;8.344;2023-03-03T16:31:50;32.03;;;21.45;;
37971;SDS011;23794;48.234;8.344;2023-03-03T16:34:28;29.35;;;19.90;;
37971;SDS011;23794;48.234;8.344;2023-03-03T16:37:13;32.05;;;19.92;;
37971;SDS011;23794;48.234;8.344;2023-03-03T16:42:29;26.02;;;18.25;;
37971;SDS011;23794;48.234;8.344;2023-03-03T16:44:59;30.52;;;18.35;;
37971;SDS011;23794;48.234;8.344;2023-03-03T16:50:20;35.53;;;20.10;;
37971;SDS011;23794;48.234;8.344;2023-03-03T16:58:49;29.52;;;19.17;;
37971;SDS011;23794;48.234;8.344;2023-03-03T17:04:43;30.95;;;18.40;;
37971;SDS011;23794;48.234;8.344;2023-03-03T17:07:33;35.17;;;19.10;;
37971;SDS011;23794;48.234;8.344;2023-03-03T17:12:53;30.30;;;18.05;;
37971;SDS011;23794;48.234;8.344;2023-03-03T17:18:32;30.95;;;18.95;;
37971;SDS011;23794;48.234;8.344;2023-03-03T17:21:09;32.22;;;19.05;;
37971;SDS011;23794;48.234;8.344;2023-03-03T17:24:10;32.45;;;17.73;;
37971;SDS011;23794;48.234;8.344;2023-03-03T17:27:13;35.97;;;21.42;;
37971;SDS011;23794;48.234;8.344;2023-03-03T17:32:34;31.92;;;19.15;;
37971;SDS011;23794;48.234;8.344;2023-03-03T17:35:13;29.80;;;19.08;;
37971;SDS011;23794;48.234;8.344;2023-03-03T17:45:52;30.20;;;16.70;;
37971;SDS011;23794;48.234;8.344;2023-03-03T17:59:58;30.10;;;18.98;;
37971;SDS011;23794;48.234;8.344;2023-03-03T18:02:42;28.00;;;18.10;;
37971;SDS011;23794;48.234;8.344;2023-03-03T18:11:07;32.45;;;19.23;;
37971;SDS011;23794;48.234;8.344;2023-03-03T18:16:37;32.85;;;18.52;;
37971;SDS011;23794;48.234;8.344;2023-03-03T18:19:43;41.08;;;21.35;;
37971;SDS011;23794;48.234;8.344;2023-03-03T18:24:58;31.05;;;19.25;;
37971;SDS011;23794;48.234;8.344;2023-03-03T18:27:38;43.17;;;22.92;;
37971;SDS011;23794;48.234;8.344;2023-03-03T18:30:14;40.28;;;22.40;;
37971;SDS011;23794;48.234;8.344;2023-03-03T18:43:55;31.80;;;18.83;;
37971;SDS011;23794;48.234;8.344;2023-03-03T18:49:06;35.25;;;20.02;;
37971;SDS011;23794;48.234;8.344;2023-03-03T18:59:38;34.35;;;18.95;;
37971;SDS011;23794;48.234;8.344;2023-03-03T19:04:39;38.03;;;22.08;;
37971;SDS011;23794;48.234;8.344;2023-03-03T19:09:48;34.50;;;18.50;;
37971;SDS011;23794;48.234;8.344;2023-03-03T19:15:40;35.72;;;19.90;;
37971;SDS011;23794;48.234;8.344;2023-03-03T19:18:02;41.40;;;20.27;;
37971;SDS011;23794;48.234;8.344;2023-03-03T19:20:38;32.35;;;19.40;;
37971;SDS011;23794;48.234;8.344;2023-03-03T19:23:10;33.53;;;19.80;;
37971;SDS011;23794;48.234;8.344;2023-03-03T19:25:38;34.43;;;20.00;;
37971;SDS011;23794;48.234;8.344;2023-03-03T19:28:11;35.15;;;20.52;;
37971;SDS011;23794;48.234;8.344;2023-03-03T19:30:46;33.38;;;20.00;;
37971;SDS011;23794;48.234;8.344;2023-03-03T19:33:39;37.45;;;20.75;;
37971;SDS011;23794;48.234;8.344;2023-03-03T19:39:23;32.95;;;19.45;;
37971;SDS011;23794;48.234;8.344;2023-03-03T19:41:53;34.33;;;20.67;;
37971;SDS011;23794;48.234;8.344;2023-03-03T19:44:43;33.60;;;19.67;;
37971;SDS011;23794;48.234;8.344;2023-03-03T19:50:12;37.58;;;21.80;;
37971;SDS011;23794;48.234;8.344;2023-03-03T19:56:05;31.98;;;19.05;;
37971;SDS011;23794;48.234;8.344;2023-03-03T19:59:00;35.40;;;19.23;;
37971;SDS011;23794;48.234;8.344;2023-03-03T20:04:45;37.22;;;20.90;;
37971;SDS011;23794;48.234;8.344;2023-03-03T20:15:16;38.55;;;21.60;;
37971;SDS011;23794;48.234;8.344;2023-03-03T20:20:23;33.33;;;19.15;;
37971;SDS011;23794;48.234;8.344;2023-03-03T20:26:30;36.45;;;19.92;;
37971;SDS011;23794;48.234;8.344;2023-03-03T20:43:03;40.53;;;21.77;;
37971;SDS011;23794;48.234;8.344;2023-03-03T20:48:37;33.78;;;20.63;;
37971;SDS011;23794;48.234;8.344;2023-03-03T20:56:38;34.22;;;19.90;;
37971;SDS011;23794;48.234;8.344;2023-03-03T21:04:39;31.08;;;19.13;;
37971;SDS011;23794;48.234;8.344;2023-03-03T21:07:06;44.05;;;23.73;;
37971;SDS011;23794;48.234;8.344;2023-03-03T21:09:36;41.28;;;24.08;;
37971;SDS011;23794;48.234;8.344;2023-03-03T21:12:24;39.50;;;22.33;;
37971;SDS011;23794;48.234;8.344;2023-03-03T21:14:58;42.85;;;23.80;;
37971;SDS011;23794;48.234;8.344;2023-03-03T21:17:27;41.20;;;22.70;;